FYWW

Windhoek, Town MET Airport

Windhoek, Namibia
METAR FYWW 201100Z 01006KT 9999 CAVOK 18/00 Q1027
Observed Flight Rules
Jul-20 @ 11:00 UTC (4 hours ago) Visual Flight Rules
Wind Visibility Clouds
10° at 6 knots 10,000+ meters
  • Clear skies
Temperatures Readings
Current 18°C / 64°F
Dewpoint 0°C / 32°F
Humidity 30%
Altimeter 30.32" Hg
Pressure 1027 hPa
Elevation 1725
METAR FYWW 201100Z 01006KT 9999 CAVOK 18/00 Q1027
Observed Flight Rules
Jul-20 @ 11:00 UTC
(4 hours ago)
VFR
Wind Visibility
10° at 6 knots 10,000+ meters
Clouds
  • Clear skies
Temperature Dewpoint
18°C / 64°F 0°C / 32°F
Humidity Altimeter Pressure
30% 30.32" Hg 1027 hPa